createdAt,value
2024-04-21T00:00:05.038Z,90.91
2024-04-21T00:01:05.133Z,90.80
2024-04-21T00:02:05.001Z,90.60
2024-04-21T00:03:05.095Z,90.87
2024-04-21T00:04:05.202Z,90.97
2024-04-21T00:05:05.100Z,91.22
2024-04-21T00:06:04.963Z,91.32
2024-04-21T00:07:04.993Z,91.74
2024-04-21T00:08:04.958Z,91.84
2024-04-21T00:09:04.975Z,91.84
2024-04-21T00:10:04.950Z,92.15
2024-04-21T00:11:04.964Z,92.21
2024-04-21T00:12:04.911Z,92.52
2024-04-21T00:13:04.907Z,92.25
2024-04-21T00:14:04.939Z,92.05
2024-04-21T00:15:04.864Z,92.11
2024-04-21T00:16:05.379Z,92.32
2024-04-21T00:17:05.063Z,92.63
2024-04-21T00:18:04.868Z,92.67
2024-04-21T00:19:04.859Z,92.67
2024-04-21T00:20:04.827Z,92.57
2024-04-21T00:21:04.810Z,92.21
2024-04-21T00:22:04.796Z,92.00
2024-04-21T00:23:04.784Z,91.90
2024-04-21T00:24:04.915Z,92.11
2024-04-21T00:25:04.772Z,92.21
2024-04-21T00:26:04.791Z,92.21
2024-04-21T00:27:04.732Z,91.90
2024-04-21T00:28:04.787Z,92.00
2024-04-21T00:29:04.708Z,92.42
2024-04-21T00:30:04.707Z,92.42
2024-04-21T00:31:04.719Z,92.42
2024-04-21T00:32:04.845Z,92.52
2024-04-21T00:33:04.731Z,92.72
2024-04-21T00:34:04.793Z,93.04
2024-04-21T00:35:04.656Z,93.14
2024-04-21T00:36:04.656Z,93.24
2024-04-21T00:37:04.678Z,93.14
2024-04-21T00:38:04.631Z,93.24
2024-04-21T00:39:04.652Z,93.35
2024-04-21T00:40:04.674Z,93.24
2024-04-21T00:41:04.588Z,92.93
2024-04-21T00:42:04.597Z,93.14
2024-04-21T00:43:04.595Z,92.93
2024-04-21T00:44:04.563Z,92.93
2024-04-21T00:45:04.544Z,93.04
2024-04-21T00:46:04.624Z,92.42
2024-04-21T00:47:04.748Z,92.42
2024-04-21T00:48:04.602Z,92.52
2024-04-21T00:49:04.524Z,92.83
2024-04-21T00:50:04.498Z,93.24
2024-04-21T00:51:04.495Z,93.04
2024-04-21T00:52:04.606Z,92.93
2024-04-21T00:53:04.481Z,92.83
2024-04-21T00:54:04.632Z,92.63
2024-04-21T00:55:04.501Z,92.52
2024-04-21T00:56:04.446Z,92.63
2024-04-21T00:57:04.405Z,92.63
2024-04-21T00:58:04.448Z,92.93
2024-04-21T00:59:04.398Z,92.52
2024-04-21T01:00:04.405Z,92.63
2024-04-21T01:01:04.541Z,92.72
2024-04-21T01:02:04.382Z,92.83
2024-04-21T01:03:04.347Z,92.93
2024-04-21T01:04:04.436Z,93.04
2024-04-21T01:05:04.366Z,93.35
2024-04-21T01:06:04.382Z,93.55
2024-04-21T01:07:04.327Z,93.87
2024-04-21T01:08:04.320Z,93.97
2024-04-21T01:09:04.285Z,93.97
2024-04-21T01:10:04.389Z,93.97
2024-04-21T01:11:04.373Z,93.97
2024-04-21T01:12:04.253Z,94.07
2024-04-21T01:13:04.267Z,94.07
2024-04-21T01:14:04.268Z,94.18
2024-04-21T01:15:04.230Z,94.18
2024-04-21T01:16:04.273Z,93.87
2024-04-21T01:17:04.307Z,93.66
2024-04-21T01:18:04.243Z,94.07
2024-04-21T01:19:04.205Z,93.76
2024-04-21T01:20:04.170Z,93.35
2024-04-21T01:21:04.161Z,92.93
2024-04-21T01:22:04.186Z,93.24
2024-04-21T01:23:04.139Z,93.35
2024-04-21T01:24:04.179Z,93.66
2024-04-21T01:25:04.147Z,93.04
2024-04-21T01:26:04.616Z,92.72
2024-04-21T01:27:04.100Z,92.42
2024-04-21T01:28:04.105Z,92.32
2024-04-21T01:29:04.088Z,91.80
2024-04-21T01:30:04.083Z,91.63
2024-04-21T01:31:04.148Z,91.80
2024-04-21T01:32:04.090Z,91.74
2024-04-21T01:33:04.081Z,91.74
2024-04-21T01:34:04.076Z,91.42
2024-04-21T01:35:04.034Z,91.53
2024-04-21T01:36:04.121Z,91.11
2024-04-21T01:37:04.054Z,91.32
2024-04-21T01:38:03.993Z,90.91
2024-04-21T01:39:03.979Z,90.39
2024-04-21T01:40:04.022Z,90.39
2024-04-21T01:41:03.949Z,90.50
2024-04-21T01:42:03.958Z,91.22
2024-04-21T01:43:03.999Z,90.91
2024-04-21T01:44:03.945Z,90.80
2024-04-21T01:45:03.901Z,91.22
2024-04-21T01:46:04.039Z,91.11
2024-04-21T01:47:03.989Z,91.42
2024-04-21T01:48:03.947Z,91.53
2024-04-21T01:49:03.951Z,91.53
2024-04-21T01:50:03.892Z,91.74
2024-04-21T01:51:03.832Z,90.91
2024-04-21T01:52:04.035Z,89.98
2024-04-21T01:53:03.817Z,90.19
2024-04-21T01:54:03.842Z,90.23
2024-04-21T01:55:03.871Z,90.29
2024-04-21T01:56:03.784Z,90.74
2024-04-21T01:57:03.787Z,90.33
2024-04-21T01:58:03.801Z,90.53
2024-04-21T01:59:03.758Z,90.44
2024-04-21T02:00:03.739Z,90.12
2024-04-21T02:01:03.783Z,90.33
2024-04-21T02:02:03.744Z,90.23
2024-04-21T02:03:03.727Z,90.23
2024-04-21T02:04:03.833Z,91.16
2024-04-21T02:05:03.684Z,90.95
2024-04-21T02:06:03.939Z,91.36
2024-04-21T02:07:03.796Z,90.84
2024-04-21T02:08:03.724Z,90.78
2024-04-21T02:09:03.707Z,90.99
2024-04-21T02:10:03.744Z,91.72
2024-04-21T02:11:03.641Z,91.61
2024-04-21T02:12:03.637Z,91.61
2024-04-21T02:13:03.643Z,91.51
2024-04-21T02:14:03.630Z,91.72
2024-04-21T02:15:03.593Z,91.72
2024-04-21T02:16:03.579Z,91.45
2024-04-21T02:17:03.720Z,91.03
2024-04-21T02:18:03.584Z,91.45
2024-04-21T02:19:03.573Z,91.35
2024-04-21T02:20:03.554Z,91.86
2024-04-21T02:21:03.513Z,92.07
2024-04-21T02:22:03.648Z,92.01
2024-04-21T02:23:03.491Z,92.11
2024-04-21T02:24:03.512Z,92.32
2024-04-21T02:25:03.519Z,92.53
2024-04-21T02:26:03.461Z,92.63
2024-04-21T02:27:03.465Z,92.74
2024-04-21T02:28:03.511Z,92.94
2024-04-21T02:29:03.503Z,93.04
2024-04-21T02:30:03.447Z,92.94
2024-04-21T02:31:03.450Z,93.15
2024-04-21T02:32:03.483Z,93.29
2024-04-21T02:33:03.486Z,93.50
2024-04-21T02:34:03.418Z,93.71
2024-04-21T02:35:03.370Z,93.81
2024-04-21T02:36:03.354Z,93.91
2024-04-21T02:37:03.386Z,94.02
2024-04-21T02:38:03.338Z,94.23
2024-04-21T02:39:03.317Z,94.43
2024-04-21T02:40:03.348Z,94.74
2024-04-21T02:41:03.310Z,94.95
2024-04-21T02:42:03.313Z,95.16
2024-04-21T02:43:03.337Z,95.26
2024-04-21T02:44:03.263Z,95.16
2024-04-21T02:45:03.251Z,95.16
2024-04-21T02:46:03.300Z,95.26
2024-04-21T02:47:03.305Z,94.81
2024-04-21T02:48:03.288Z,93.66
2024-04-21T02:49:03.246Z,94.29
2024-04-21T02:50:03.211Z,92.78
2024-04-21T02:51:03.249Z,92.68
2024-04-21T02:52:03.242Z,92.88
2024-04-21T02:53:03.190Z,93.13
2024-04-21T02:54:03.150Z,93.33
2024-04-21T02:55:03.197Z,94.11
2024-04-21T02:56:03.257Z,94.26
2024-04-21T02:57:03.137Z,95.09
2024-04-21T02:58:03.131Z,95.86
2024-04-21T02:59:03.106Z,96.58
2024-04-21T03:00:03.117Z,97.25
2024-04-21T03:01:03.163Z,97.35
2024-04-21T03:02:03.102Z,97.45
2024-04-21T03:03:03.060Z,97.61
2024-04-21T03:04:03.142Z,97.61
2024-04-21T03:05:06.859Z,97.50
2024-04-21T03:06:03.055Z,97.50
2024-04-21T03:07:03.079Z,97.40
2024-04-21T03:08:03.007Z,97.44
2024-04-21T03:09:03.012Z,97.44
2024-04-21T03:10:03.122Z,97.65
2024-04-21T03:11:03.060Z,97.65
2024-04-21T03:12:02.995Z,97.65
2024-04-21T03:13:03.040Z,97.65
2024-04-21T03:14:02.951Z,97.65
2024-04-21T03:15:02.940Z,97.55
2024-04-21T03:16:02.978Z,97.44
2024-04-21T03:17:02.980Z,97.34
2024-04-21T03:18:02.951Z,97.28
2024-04-21T03:19:03.078Z,97.28
2024-04-21T03:20:02.960Z,97.28
2024-04-21T03:21:02.878Z,97.28
2024-04-21T03:22:02.888Z,97.28
2024-04-21T03:23:02.854Z,97.49
2024-04-21T03:24:02.839Z,97.59
2024-04-21T03:25:02.862Z,97.59
2024-04-21T03:26:02.847Z,97.85
2024-04-21T03:27:02.812Z,97.95
2024-04-21T03:28:02.873Z,98.05
2024-04-21T03:29:02.818Z,98.05
2024-04-21T03:30:02.790Z,98.16
2024-04-21T03:31:02.826Z,98.26
2024-04-21T03:32:02.755Z,98.26
2024-04-21T03:33:02.828Z,98.36
2024-04-21T03:34:02.786Z,98.47
2024-04-21T03:35:02.722Z,98.68
2024-04-21T03:36:02.742Z,98.68
2024-04-21T03:37:02.786Z,98.78
2024-04-21T03:38:02.749Z,98.72
2024-04-21T03:39:02.695Z,98.62
2024-04-21T03:40:02.713Z,98.62
2024-04-21T03:41:02.693Z,98.52
2024-04-21T03:42:02.672Z,98.62
2024-04-21T03:43:02.655Z,98.62
2024-04-21T03:44:02.657Z,98.72
2024-04-21T03:45:02.618Z,98.83
2024-04-21T03:46:02.740Z,98.93
2024-04-21T03:47:02.641Z,99.14
2024-04-21T03:48:02.700Z,99.14
2024-04-21T03:49:02.588Z,99.14
2024-04-21T03:50:02.606Z,99.24
2024-04-21T03:51:02.566Z,99.45
2024-04-21T03:52:02.586Z,99.55
2024-04-21T03:53:02.552Z,99.66
2024-04-21T03:54:02.528Z,99.66
2024-04-21T03:55:02.538Z,99.76
2024-04-21T03:56:02.504Z,99.76
2024-04-21T03:57:02.502Z,99.76
2024-04-21T03:58:02.826Z,99.76
2024-04-21T03:59:02.515Z,99.76
2024-04-21T04:00:02.476Z,99.87
2024-04-21T04:01:02.521Z,99.98
2024-04-21T04:02:02.536Z,99.98
2024-04-21T04:03:02.474Z,99.99
2024-04-21T04:04:02.615Z,99.99
2024-04-21T04:05:02.440Z,99.99
2024-04-21T04:06:02.421Z,99.99
2024-04-21T04:07:02.489Z,99.99
2024-04-21T04:08:02.444Z,99.99
2024-04-21T04:09:02.373Z,99.99
2024-04-21T04:10:02.491Z,99.99
2024-04-21T04:11:02.570Z,99.99
2024-04-21T04:12:02.411Z,99.99
2024-04-21T04:13:02.376Z,99.99
2024-04-21T04:14:02.362Z,99.99
2024-04-21T04:15:02.306Z,99.99
2024-04-21T04:16:02.360Z,99.81
2024-04-21T04:17:02.308Z,99.81
2024-04-21T04:18:02.508Z,99.91
2024-04-21T04:19:02.366Z,99.81
2024-04-21T04:20:02.320Z,99.99
2024-04-21T04:21:02.272Z,99.99
2024-04-21T04:22:02.348Z,99.99
2024-04-21T04:23:02.223Z,99.99
2024-04-21T04:24:02.270Z,99.99
2024-04-21T04:25:02.250Z,99.99
2024-04-21T04:26:02.427Z,99.99
2024-04-21T04:27:02.175Z,99.99
2024-04-21T04:28:02.221Z,99.99
2024-04-21T04:29:02.155Z,99.99
2024-04-21T04:30:02.493Z,99.99
2024-04-21T04:31:02.224Z,99.99
2024-04-21T04:32:02.166Z,99.99
2024-04-21T04:33:02.347Z,99.99
2024-04-21T04:34:02.198Z,99.99
2024-04-21T04:35:02.106Z,99.99
2024-04-21T04:36:02.108Z,99.99
2024-04-21T04:37:02.111Z,99.99
2024-04-21T04:38:02.065Z,99.99
2024-04-21T04:39:02.162Z,99.99
2024-04-21T04:40:02.365Z,99.99
2024-04-21T04:41:02.042Z,99.99
2024-04-21T04:42:02.032Z,99.99
2024-04-21T04:43:02.066Z,99.99
2024-04-21T04:44:02.052Z,99.99
2024-04-21T04:45:02.002Z,99.99
2024-04-21T04:46:02.068Z,99.99
2024-04-21T04:47:01.990Z,99.99
2024-04-21T04:48:02.045Z,99.99
2024-04-21T04:49:01.979Z,99.99
2024-04-21T04:50:01.980Z,99.99
2024-04-21T04:51:01.951Z,99.99
2024-04-21T04:52:01.955Z,99.99
2024-04-21T04:53:01.932Z,99.99
2024-04-21T04:54:01.927Z,99.99
2024-04-21T04:55:01.906Z,99.99
2024-04-21T04:56:01.948Z,99.99
2024-04-21T04:57:01.919Z,99.99
2024-04-21T04:58:02.130Z,99.99
2024-04-21T04:59:04.051Z,99.99
2024-04-21T05:00:01.832Z,99.99
2024-04-21T05:01:01.992Z,99.99
2024-04-21T05:02:01.882Z,99.99
2024-04-21T05:03:01.836Z,99.99
2024-04-21T05:04:01.961Z,99.99
2024-04-21T05:05:01.857Z,99.99
2024-04-21T05:06:01.793Z,99.99
2024-04-21T05:07:01.813Z,99.99
2024-04-21T05:08:01.784Z,99.99
2024-04-21T05:09:01.754Z,99.99
2024-04-21T05:10:01.808Z,99.99
2024-04-21T05:11:01.820Z,99.99
2024-04-21T05:12:01.731Z,99.99
2024-04-21T05:13:01.767Z,99.99
2024-04-21T05:14:01.698Z,99.99
2024-04-21T05:15:01.700Z,99.99
2024-04-21T05:16:01.715Z,99.99
2024-04-21T05:17:01.704Z,99.99
2024-04-21T05:18:01.822Z,99.99
2024-04-21T05:19:01.646Z,99.99
2024-04-21T05:20:01.646Z,99.99
2024-04-21T05:21:01.627Z,99.99
2024-04-21T05:22:01.652Z,99.99
2024-04-21T05:23:01.590Z,99.99
2024-04-21T05:24:01.594Z,99.99
2024-04-21T05:25:01.650Z,99.99
2024-04-21T05:26:01.574Z,99.99
2024-04-21T05:27:01.549Z,99.99
2024-04-21T05:28:01.598Z,99.99
2024-04-21T05:29:01.604Z,99.99
2024-04-21T05:30:01.575Z,99.99
2024-04-21T05:31:01.524Z,99.99
2024-04-21T05:32:01.547Z,99.99
2024-04-21T05:33:01.543Z,99.99
2024-04-21T05:34:01.525Z,99.99
2024-04-21T05:35:01.478Z,99.99
2024-04-21T05:36:01.463Z,99.99
2024-04-21T05:37:01.497Z,99.99
2024-04-21T05:38:01.473Z,99.99
2024-04-21T05:39:01.412Z,99.99
2024-04-21T05:40:01.548Z,99.99
2024-04-21T05:41:01.415Z,99.99
2024-04-21T05:42:01.412Z,99.99
2024-04-21T05:43:01.387Z,99.99
2024-04-21T05:44:01.411Z,99.99
2024-04-21T05:45:01.408Z,99.99
2024-04-21T05:46:01.399Z,99.99
2024-04-21T05:47:01.385Z,99.99
2024-04-21T05:48:01.463Z,99.99
2024-04-21T05:49:01.347Z,99.99
2024-04-21T05:50:01.325Z,99.99
2024-04-21T05:51:01.278Z,99.99
2024-04-21T05:52:01.320Z,99.99
2024-04-21T05:53:01.270Z,99.99
2024-04-21T05:54:01.270Z,99.99
2024-04-21T05:55:01.285Z,99.99
2024-04-21T05:56:01.238Z,99.99
2024-04-21T05:57:01.239Z,99.99
2024-04-21T05:58:01.271Z,99.99
2024-04-21T05:59:01.236Z,99.99
2024-04-21T06:00:01.224Z,99.99
2024-04-21T06:01:01.352Z,99.99
2024-04-21T06:02:01.187Z,99.99
2024-04-21T06:03:01.224Z,99.99
2024-04-21T06:04:01.270Z,99.99
2024-04-21T06:05:01.433Z,99.99
2024-04-21T06:06:01.135Z,99.99
2024-04-21T06:07:01.143Z,99.99
2024-04-21T06:08:01.218Z,99.99
2024-04-21T06:09:01.169Z,99.99
2024-04-21T06:10:01.237Z,99.99
2024-04-21T06:11:01.080Z,99.99
2024-04-21T06:12:01.144Z,99.99
2024-04-21T06:13:01.222Z,99.99
2024-04-21T06:14:01.059Z,99.99
2024-04-21T06:15:01.038Z,99.99
2024-04-21T06:16:01.046Z,99.72
2024-04-21T06:17:01.033Z,99.68
2024-04-21T06:18:01.100Z,99.68
2024-04-21T06:19:01.047Z,99.57
2024-04-21T06:20:00.982Z,98.85
2024-04-21T06:21:00.990Z,98.64
2024-04-21T06:22:01.018Z,98.28
2024-04-21T06:23:00.946Z,98.80
2024-04-21T06:24:00.947Z,98.39
2024-04-21T06:25:00.940Z,97.87
2024-04-21T06:26:01.028Z,98.03
2024-04-21T06:27:01.080Z,97.83
2024-04-21T06:28:00.923Z,97.62
2024-04-21T06:29:00.895Z,96.48
2024-04-21T06:30:00.905Z,96.44
2024-04-21T06:31:01.182Z,96.33
2024-04-21T06:32:00.869Z,96.64
2024-04-21T06:33:00.861Z,97.06
2024-04-21T06:34:00.861Z,96.64
2024-04-21T06:35:00.831Z,96.54
2024-04-21T06:36:00.818Z,96.58
2024-04-21T06:37:00.835Z,96.06
2024-04-21T06:38:00.792Z,95.75
2024-04-21T06:39:00.827Z,95.96
2024-04-21T06:40:00.836Z,96.17
2024-04-21T06:41:01.012Z,96.37
2024-04-21T06:42:00.746Z,96.06
2024-04-21T06:43:00.747Z,96.06
2024-04-21T06:44:00.716Z,95.86
2024-04-21T06:45:00.954Z,96.48
2024-04-21T06:46:00.781Z,96.06
2024-04-21T06:47:00.685Z,95.96
2024-04-21T06:48:00.793Z,96.17
2024-04-21T06:49:00.746Z,95.75
2024-04-21T06:50:00.675Z,95.65
2024-04-21T06:51:00.649Z,95.75
2024-04-21T06:52:00.651Z,96.06
2024-04-21T06:53:00.648Z,96.06
2024-04-21T06:54:00.609Z,96.06
2024-04-21T06:55:00.774Z,95.75
2024-04-21T06:56:00.587Z,96.12
2024-04-21T06:57:00.586Z,96.02
2024-04-21T06:58:00.688Z,95.81
2024-04-21T06:59:00.596Z,95.81
2024-04-21T07:00:00.592Z,95.25
2024-04-21T07:01:00.704Z,94.94
2024-04-21T07:02:00.643Z,94.84
2024-04-21T07:03:00.601Z,94.84
2024-04-21T07:04:00.645Z,94.84
2024-04-21T07:05:00.492Z,94.22
2024-04-21T07:06:00.480Z,93.80
2024-04-21T07:07:00.539Z,94.06
2024-04-21T07:08:00.506Z,93.33
2024-04-21T07:09:00.543Z,93.12
2024-04-21T07:10:00.535Z,92.96
2024-04-21T07:11:02.031Z,92.85
2024-04-21T07:12:00.457Z,92.55
2024-04-21T07:13:00.559Z,92.55
2024-04-21T07:14:10.150Z,93.06
2024-04-21T07:15:01.490Z,93.99
2024-04-21T07:16:00.464Z,93.99
2024-04-21T07:17:00.407Z,93.79
2024-04-21T07:18:00.495Z,94.10
2024-04-21T07:19:00.573Z,93.16
2024-04-21T07:20:00.356Z,92.96
2024-04-21T07:21:00.386Z,93.43
2024-04-21T07:22:00.492Z,94.06
2024-04-21T07:23:00.326Z,93.74
2024-04-21T07:24:00.308Z,93.85
2024-04-21T07:25:09.262Z,93.43
2024-04-21T07:26:01.324Z,93.60
2024-04-21T07:27:00.281Z,93.91
2024-04-21T07:28:00.500Z,93.29
2024-04-21T07:29:00.241Z,93.18
2024-04-21T07:30:00.241Z,93.39
2024-04-21T07:31:00.242Z,94.32
2024-04-21T07:32:00.269Z,94.12
2024-04-21T07:33:00.224Z,93.49
2024-04-21T07:34:00.270Z,93.02
2024-04-21T07:35:00.215Z,92.40
2024-04-21T07:36:00.176Z,92.81
2024-04-21T07:37:00.172Z,92.97
2024-04-21T07:38:02.348Z,91.67
2024-04-21T07:39:00.119Z,92.19
2024-04-21T07:40:00.192Z,91.94
2024-04-21T07:41:00.136Z,92.25
2024-04-21T07:42:00.197Z,92.77
2024-04-21T07:43:00.126Z,92.36
2024-04-21T07:44:00.103Z,91.74
2024-04-21T07:45:00.127Z,92.05
2024-04-21T07:46:03.079Z,92.15
2024-04-21T07:47:00.054Z,91.42
2024-04-21T07:48:00.152Z,91.01
2024-04-21T07:49:00.100Z,90.70
2024-04-21T07:50:00.040Z,91.11
2024-04-21T07:51:00.008Z,91.42
2024-04-21T07:52:00.031Z,91.63
2024-04-21T07:52:59.980Z,91.22
2024-04-21T07:53:59.971Z,91.22
2024-04-21T07:54:59.981Z,91.01
2024-04-21T07:55:59.954Z,90.60
2024-04-21T07:57:02.875Z,89.98
2024-04-21T07:57:59.945Z,90.50
2024-04-21T07:58:59.911Z,90.39
2024-04-21T07:59:59.921Z,90.91
2024-04-21T08:00:59.924Z,91.63
2024-04-21T08:01:59.943Z,90.60
2024-04-21T08:02:59.883Z,90.33
2024-04-21T08:03:59.900Z,90.64
2024-04-21T08:04:59.858Z,91.05
2024-04-21T08:06:00.034Z,90.84
2024-04-21T08:06:59.833Z,90.02
2024-04-21T08:07:59.821Z,90.44
2024-04-21T08:09:07.257Z,89.29
2024-04-21T08:10:00.841Z,90.02
2024-04-21T08:11:04.522Z,90.44
2024-04-21T08:12:00.777Z,89.71
2024-04-21T08:12:59.776Z,89.50
2024-04-21T08:13:59.929Z,89.29
2024-04-21T08:14:59.920Z,89.40
2024-04-21T08:15:59.857Z,88.78
2024-04-21T08:16:59.727Z,89.50
2024-04-21T08:17:59.844Z,89.71
2024-04-21T08:18:59.721Z,89.40
2024-04-21T08:19:59.714Z,90.29
2024-04-21T08:20:59.678Z,91.22
2024-04-21T08:21:59.703Z,91.53
2024-04-21T08:22:59.674Z,91.74
2024-04-21T08:23:59.657Z,91.26
2024-04-21T08:24:59.650Z,91.47
2024-04-21T08:25:59.653Z,91.78
2024-04-21T08:26:59.614Z,91.94
2024-04-21T08:27:59.619Z,91.26
2024-04-21T08:28:59.600Z,91.57
2024-04-21T08:29:59.589Z,91.26
2024-04-21T08:30:59.611Z,90.44
2024-04-21T08:32:00.833Z,90.33
2024-04-21T08:32:59.612Z,90.53
2024-04-21T08:33:59.553Z,89.71
2024-04-21T08:34:59.517Z,91.01
2024-04-21T08:35:59.543Z,90.91
2024-04-21T08:36:59.533Z,89.67
2024-04-21T08:37:59.509Z,89.77
2024-04-21T08:38:59.475Z,89.46
2024-04-21T08:39:59.526Z,89.46
2024-04-21T08:40:59.452Z,89.67
2024-04-21T08:41:59.467Z,90.19
2024-04-21T08:42:59.488Z,89.67
2024-04-21T08:43:59.465Z,90.50
2024-04-21T08:44:59.410Z,90.60
2024-04-21T08:45:59.427Z,90.70
2024-04-21T08:46:59.411Z,90.80
2024-04-21T08:47:59.578Z,90.91
2024-04-21T08:48:59.663Z,89.36
2024-04-21T08:49:59.425Z,88.22
2024-04-21T08:50:59.350Z,88.12
2024-04-21T08:51:59.370Z,88.01
2024-04-21T08:52:59.332Z,88.22
2024-04-21T08:53:59.321Z,88.53
2024-04-21T08:54:59.383Z,89.15
2024-04-21T08:55:59.300Z,87.81
2024-04-21T08:56:59.295Z,88.22
2024-04-21T08:57:59.301Z,88.84
2024-04-21T08:58:59.265Z,89.46
2024-04-21T08:59:59.262Z,88.43
2024-04-21T09:00:59.328Z,88.43
2024-04-21T09:01:59.289Z,88.94
2024-04-21T09:02:59.229Z,89.36
2024-04-21T09:03:59.292Z,88.06
2024-04-21T09:04:59.254Z,87.95
2024-04-21T09:05:59.204Z,88.64
2024-04-21T09:06:59.211Z,88.98
2024-04-21T09:07:59.174Z,88.16
2024-04-21T09:08:59.206Z,88.16
2024-04-21T09:09:59.184Z,87.95
2024-04-21T09:10:59.176Z,88.57
2024-04-21T09:11:59.142Z,89.09
2024-04-21T09:12:59.249Z,89.50
2024-04-21T09:13:59.097Z,89.19
2024-04-21T09:14:59.235Z,89.15
2024-04-21T09:15:59.193Z,89.25
2024-04-21T09:16:59.092Z,88.22
2024-04-21T09:18:01.145Z,88.43
2024-04-21T09:18:59.163Z,89.25
2024-04-21T09:19:59.050Z,88.53
2024-04-21T09:20:59.059Z,88.22
2024-04-21T09:21:59.060Z,88.16
2024-04-21T09:22:59.031Z,87.33
2024-04-21T09:23:59.033Z,87.49
2024-04-21T09:24:59.032Z,87.91
2024-04-21T09:25:58.989Z,88.22
2024-04-21T09:26:58.982Z,87.08
2024-04-21T09:27:58.975Z,88.32
2024-04-21T09:28:58.953Z,88.43
2024-04-21T09:29:59.060Z,86.88
2024-04-21T09:30:58.930Z,87.49
2024-04-21T09:31:58.910Z,86.63
2024-04-21T09:32:59.314Z,86.52
2024-04-21T09:33:59.102Z,87.15
2024-04-21T09:34:58.875Z,87.46
2024-04-21T09:35:58.875Z,87.25
2024-04-21T09:36:58.875Z,87.52
2024-04-21T09:37:58.891Z,87.73
2024-04-21T09:38:58.905Z,86.49
2024-04-21T09:39:58.869Z,86.44
2024-04-21T09:40:58.805Z,86.24
2024-04-21T09:41:58.827Z,85.10
2024-04-21T09:42:58.810Z,85.31
2024-04-21T09:43:58.787Z,85.41
2024-04-21T09:44:58.800Z,85.21
2024-04-21T09:45:58.802Z,84.79
2024-04-21T09:46:58.753Z,83.34
2024-04-21T09:47:58.851Z,84.44
2024-04-21T09:48:58.751Z,85.13
2024-04-21T09:49:58.719Z,84.72
2024-04-21T09:50:58.701Z,82.03
2024-04-21T09:51:58.738Z,82.92
2024-04-21T09:52:58.756Z,81.17
2024-04-21T09:53:58.687Z,82.51
2024-04-21T09:54:58.689Z,82.57
2024-04-21T09:55:58.647Z,82.57
2024-04-21T09:56:58.838Z,80.65
2024-04-21T09:57:58.662Z,81.81
2024-04-21T09:58:58.616Z,80.43
2024-04-21T09:59:58.613Z,79.57
2024-04-21T10:00:58.662Z,78.58
2024-04-21T10:01:58.664Z,77.07
2024-04-21T10:02:58.628Z,77.51
2024-04-21T10:03:58.682Z,76.18
2024-04-21T10:04:58.566Z,77.86
2024-04-21T10:05:58.618Z,79.93
2024-04-21T10:06:58.708Z,76.73
2024-04-21T10:07:58.515Z,76.83
2024-04-21T10:08:58.508Z,77.45
2024-04-21T10:09:58.522Z,78.28
2024-04-21T10:10:58.584Z,78.58
2024-04-21T10:11:58.477Z,78.17
2024-04-21T10:12:58.492Z,79.37
2024-04-21T10:13:58.502Z,78.44
2024-04-21T10:14:58.439Z,78.41
2024-04-21T10:15:58.460Z,79.33
2024-04-21T10:16:58.433Z,79.03
2024-04-21T10:17:58.616Z,78.30
2024-04-21T10:18:58.463Z,76.04
2024-04-21T10:19:58.412Z,75.22
2024-04-21T10:20:58.401Z,74.91
2024-04-21T10:21:58.413Z,75.94
2024-04-21T10:22:58.424Z,75.73
2024-04-21T10:23:58.355Z,74.26
2024-04-21T10:24:58.378Z,74.95
2024-04-21T10:25:58.324Z,72.99
2024-04-21T10:26:58.320Z,74.70
2024-04-21T10:27:58.398Z,72.92
2024-04-21T10:28:58.288Z,72.78
2024-04-21T10:29:58.290Z,72.20
2024-04-21T10:30:58.305Z,69.98
2024-04-21T10:31:58.265Z,72.34
2024-04-21T10:32:58.277Z,71.11
2024-04-21T10:33:58.296Z,70.70
2024-04-21T10:34:58.332Z,68.61
2024-04-21T10:35:58.226Z,70.08
2024-04-21T10:36:58.216Z,72.13
2024-04-21T10:37:58.235Z,71.04
2024-04-21T10:38:58.206Z,71.37
2024-04-21T10:39:58.213Z,72.20
2024-04-21T10:40:58.174Z,72.41
2024-04-21T10:41:58.197Z,71.07
2024-04-21T10:42:58.168Z,71.48
2024-04-21T10:43:58.149Z,71.62
2024-04-21T10:44:58.146Z,71.48
2024-04-21T10:45:58.178Z,71.75
2024-04-21T10:46:58.176Z,70.66
2024-04-21T10:47:58.208Z,71.48
2024-04-21T10:48:58.161Z,68.59
2024-04-21T10:49:58.070Z,67.63
2024-04-21T10:50:58.095Z,66.22
2024-04-21T10:51:58.070Z,67.79
2024-04-21T10:52:58.071Z,64.20
2024-04-21T10:53:58.040Z,67.97
2024-04-21T10:54:58.081Z,67.83
2024-04-21T10:55:58.953Z,63.94
2024-04-21T10:56:57.988Z,65.27
2024-04-21T10:57:57.998Z,65.45
2024-04-21T10:58:57.971Z,65.17
2024-04-21T10:59:57.985Z,63.39
2024-04-21T11:00:58.057Z,65.06
2024-04-21T11:01:57.970Z,64.47
2024-04-21T11:02:57.954Z,66.93
2024-04-21T11:03:57.953Z,67.76
2024-04-21T11:04:57.896Z,67.14
2024-04-21T11:05:57.902Z,67.76
2024-04-21T11:06:57.923Z,67.65
2024-04-21T11:07:58.524Z,66.86
2024-04-21T11:08:57.985Z,66.86
2024-04-21T11:09:57.890Z,65.97
2024-04-21T11:10:57.933Z,66.28
2024-04-21T11:11:57.893Z,67.10
2024-04-21T11:12:57.811Z,66.55
2024-04-21T11:13:57.806Z,67.48
2024-04-21T11:14:57.786Z,65.50
2024-04-21T11:15:57.857Z,64.54
2024-04-21T11:16:57.784Z,63.85
2024-04-21T11:17:57.823Z,64.64
2024-04-21T11:18:57.818Z,66.28
2024-04-21T11:19:57.737Z,66.39
2024-04-21T11:20:57.737Z,64.23
2024-04-21T11:21:57.745Z,63.65
2024-04-21T11:22:57.699Z,64.98
2024-04-21T11:23:57.698Z,64.67
2024-04-21T11:24:57.710Z,62.93
2024-04-21T11:25:57.687Z,63.54
2024-04-21T11:26:57.658Z,65.70
2024-04-21T11:27:57.680Z,64.98
2024-04-21T11:28:57.641Z,66.56
2024-04-21T11:29:57.636Z,64.28
2024-04-21T11:30:57.656Z,62.23
2024-04-21T11:31:57.671Z,62.12
2024-04-21T11:32:57.697Z,61.74
2024-04-21T11:33:57.593Z,63.28
2024-04-21T11:34:57.588Z,62.43
2024-04-21T11:35:57.603Z,60.92
2024-04-21T11:36:57.584Z,61.44
2024-04-21T11:37:57.548Z,59.89
2024-04-21T11:38:57.535Z,60.21
2024-04-21T11:39:57.549Z,60.72
2024-04-21T11:40:57.622Z,60.10
2024-04-21T11:41:57.503Z,59.89
2024-04-21T11:42:57.507Z,61.64
2024-04-21T11:43:57.484Z,61.23
2024-04-21T11:44:57.515Z,59.89
2024-04-21T11:45:57.514Z,60.07
2024-04-21T11:46:57.527Z,60.79
2024-04-21T11:47:57.671Z,61.41
2024-04-21T11:48:57.518Z,61.51
2024-04-21T11:49:57.425Z,59.97
2024-04-21T11:50:57.409Z,60.61
2024-04-21T11:51:57.422Z,60.21
2024-04-21T11:52:57.384Z,60.72
2024-04-21T11:53:57.426Z,62.26
2024-04-21T11:54:57.387Z,61.23
2024-04-21T11:55:57.351Z,61.36
2024-04-21T11:56:57.338Z,60.54
2024-04-21T11:57:57.468Z,63.51
2024-04-21T11:58:57.324Z,60.75
2024-04-21T11:59:57.308Z,60.33
2024-04-21T12:00:57.359Z,61.57
2024-04-21T12:01:57.414Z,63.00
2024-04-21T12:02:57.312Z,64.72
2024-04-21T12:03:57.315Z,66.19
2024-04-21T12:04:57.523Z,64.53
2024-04-21T12:05:57.236Z,66.13
2024-04-21T12:06:57.241Z,66.75
2024-04-21T12:07:57.234Z,67.94
2024-04-21T12:08:57.213Z,66.00
2024-04-21T12:09:57.217Z,65.83
2024-04-21T12:10:57.261Z,66.44
2024-04-21T12:11:57.240Z,66.44
2024-04-21T12:12:57.199Z,66.37
2024-04-21T12:13:57.156Z,68.55
2024-04-21T12:14:57.141Z,67.73
2024-04-21T12:15:57.202Z,67.05
2024-04-21T12:16:57.260Z,68.27
2024-04-21T12:17:57.175Z,66.97
2024-04-21T12:18:57.386Z,68.38
2024-04-21T12:19:57.100Z,67.69
2024-04-21T12:20:57.093Z,68.30
2024-04-21T12:21:57.125Z,67.08
2024-04-21T12:22:57.070Z,66.77
2024-04-21T12:23:57.067Z,68.34
2024-04-21T12:24:57.030Z,69.02
2024-04-21T12:25:57.020Z,67.97
2024-04-21T12:26:57.033Z,67.35
2024-04-21T12:27:57.087Z,67.76
2024-04-21T12:28:56.981Z,67.35
2024-04-21T12:29:56.978Z,67.66
2024-04-21T12:30:57.008Z,67.11
2024-04-21T12:31:57.012Z,67.49
2024-04-21T12:32:57.176Z,66.75
2024-04-21T12:33:56.988Z,67.43
2024-04-21T12:34:56.934Z,65.56
2024-04-21T12:35:56.925Z,64.64
2024-04-21T12:36:56.934Z,66.75
2024-04-21T12:37:56.890Z,61.72
2024-04-21T12:38:56.871Z,64.04
2024-04-21T12:39:56.919Z,61.18
2024-04-21T12:40:56.871Z,59.00
2024-04-21T12:41:56.866Z,58.80
2024-04-21T12:42:56.849Z,59.69
2024-04-21T12:43:56.828Z,57.52
2024-04-21T12:44:56.836Z,55.61
2024-04-21T12:45:56.864Z,55.87
2024-04-21T12:46:56.881Z,58.04
2024-04-21T12:47:56.852Z,58.14
2024-04-21T12:48:56.771Z,61.41
2024-04-21T12:49:56.787Z,57.66
2024-04-21T12:50:56.781Z,58.14
2024-04-21T12:51:56.784Z,57.97